Time;durP1;ratioP1;P1;durP2;ratioP2;P2;SDS_P1;SDS_P2;PMS_P1;PMS_P2;Temp;Humidity;BMP_temperature;BMP_pressure;BME280_temperature;BME280_humidity;BME280_pressure;Samples;Min_cycle;Max_cycle;Signal;HPM_P1;HPM_P2
2022/05/10 00:01:56;;;;;;;13.60;7.20;;;12.90;99.90;;;;;;5034488;28;20044;-66
2022/05/10 00:04:22;;;;;;;10.30;6.68;;;12.90;99.90;;;;;;5014371;28;20045;-68
2022/05/10 00:06:50;;;;;;;14.95;7.30;;;12.80;99.90;;;;;;5049996;28;20870;-68
2022/05/10 00:09:20;;;;;;;14.30;7.35;;;12.80;99.90;;;;;;5040601;28;20497;-68
2022/05/10 00:11:47;;;;;;;14.27;6.97;;;12.80;99.90;;;;;;5054688;28;20052;-67
2022/05/10 00:14:13;;;;;;;14.95;8.52;;;12.80;99.90;;;;;;5033846;28;20050;-65
2022/05/10 00:16:43;;;;;;;10.35;6.80;;;12.70;99.90;;;;;;5032289;28;20041;-68
2022/05/10 00:19:13;;;;;;;17.40;7.80;;;12.70;99.90;;;;;;5033548;28;20499;-68
2022/05/10 00:21:39;;;;;;;15.38;7.93;;;12.70;99.90;;;;;;5027512;28;20061;-67
2022/05/10 00:24:05;;;;;;;14.05;8.40;;;12.70;99.90;;;;;;5032171;28;20049;-66
2022/05/10 00:26:31;;;;;;;14.52;8.45;;;12.70;99.90;;;;;;5036665;28;20084;-66
2022/05/10 00:28:57;;;;;;;17.52;8.52;;;12.70;99.90;;;;;;5053243;28;20895;-69
2022/05/10 00:31:23;;;;;;;13.82;7.90;;;12.70;99.90;;;;;;5050171;28;20045;-68
2022/05/10 00:33:49;;;;;;;18.15;8.50;;;12.70;99.90;;;;;;5030543;28;20048;-69
2022/05/10 00:36:18;;;;;;;14.70;7.93;;;12.70;99.90;;;;;;5048675;28;21033;-67
2022/05/10 00:38:44;;;;;;;16.58;9.13;;;12.70;99.90;;;;;;5046410;28;20484;-69
2022/05/10 00:41:27;;;;;;;13.25;7.57;;;12.70;99.90;;;;;;5039314;28;20052;-66
2022/05/10 00:44:01;;;;;;;13.68;7.28;;;12.60;99.90;;;;;;5056133;28;20040;-67
2022/05/10 00:46:33;;;;;;;15.70;8.52;;;12.60;99.90;;;;;;5059504;28;20044;-68
2022/05/10 00:49:34;;;;;;;13.48;7.72;;;12.60;99.90;;;;;;5062021;28;20054;-69
2022/05/10 00:52:26;;;;;;;16.52;8.35;;;12.60;99.90;;;;;;5029713;28;20055;-69
2022/05/10 00:55:11;;;;;;;18.75;7.60;;;12.60;99.90;;;;;;5042242;28;20040;-69
2022/05/10 00:57:46;;;;;;;13.98;6.97;;;12.50;99.90;;;;;;5033846;28;20060;-67
2022/05/10 01:00:22;;;;;;;15.48;7.00;;;12.60;99.90;;;;;;5036379;28;20049;-66
2022/05/10 01:02:54;;;;;;;17.08;8.02;;;12.70;99.90;;;;;;5058111;28;20045;-69
2022/05/10 01:05:36;;;;;;;17.17;7.45;;;12.70;99.90;;;;;;5050836;28;20525;-66
2022/05/10 01:08:08;;;;;;;19.25;6.70;;;12.80;99.90;;;;;;5044240;28;20111;-68
2022/05/10 01:11:14;;;;;;;15.43;7.03;;;12.80;99.90;;;;;;5033492;28;20118;-69
2022/05/10 01:14:12;;;;;;;17.33;6.85;;;12.80;99.90;;;;;;4998509;28;20401;-69
2022/05/10 01:16:38;;;;;;;14.93;7.05;;;12.80;99.90;;;;;;5053837;28;20048;-69
2022/05/10 01:19:04;;;;;;;11.00;6.82;;;12.80;99.90;;;;;;5053998;28;20106;-69
2022/05/10 01:21:57;;;;;;;13.38;6.65;;;12.80;99.90;;;;;;5023899;28;20056;-69
2022/05/10 01:24:41;;;;;;;;;;;12.80;99.90;;;;;;5036433;28;20087;-66
2022/05/10 01:27:35;;;;;;;16.13;6.57;;;12.80;99.90;;;;;;5055841;28;19959;-69
2022/05/10 01:30:09;;;;;;;14.20;6.45;;;12.80;99.90;;;;;;5041842;28;20518;-69
2022/05/10 01:35:37;;;;;;;10.10;6.25;;;12.90;99.90;;;;;;5053974;28;20120;-69
2022/05/10 01:38:07;;;;;;;13.13;6.13;;;12.90;99.90;;;;;;5070411;28;20105;-69
2022/05/10 01:40:42;;;;;;;12.40;6.30;;;12.90;99.90;;;;;;5043881;28;20040;-69
2022/05/10 01:43:26;;;;;;;16.50;6.55;;;12.90;99.90;;;;;;5058932;28;20052;-67
2022/05/10 01:46:03;;;;;;;15.35;6.53;;;12.90;99.90;;;;;;5067982;28;20040;-69
2022/05/10 01:48:35;;;;;;;11.77;5.93;;;13.00;99.90;;;;;;5071798;28;20085;-69
2022/05/10 01:51:09;;;;;;;11.52;6.10;;;13.00;99.90;;;;;;5048782;28;20088;-68
2022/05/10 01:53:38;;;;;;;13.23;5.65;;;13.00;99.90;;;;;;5034458;28;20057;-69
2022/05/10 01:56:14;;;;;;;10.77;6.18;;;13.00;99.90;;;;;;5048447;28;20040;-66
2022/05/10 01:58:42;;;;;;;12.25;6.18;;;13.00;99.90;;;;;;5052481;28;20037;-68
2022/05/10 02:01:17;;;;;;;18.27;6.05;;;13.00;99.90;;;;;;5033678;28;20056;-67
2022/05/10 02:03:56;;;;;;;14.90;6.70;;;13.00;99.90;;;;;;5046408;28;20090;-66
2022/05/10 02:06:34;;;;;;;12.27;6.25;;;13.00;99.90;;;;;;5048015;28;20114;-65
2022/05/10 02:09:10;;;;;;;15.68;6.10;;;13.10;99.90;;;;;;5049246;28;20045;-65
2022/05/10 02:11:48;;;;;;;12.65;6.60;;;13.00;99.90;;;;;;5054198;28;20071;-68
2022/05/10 02:14:34;;;;;;;12.82;6.80;;;13.00;99.90;;;;;;5052234;28;20048;-66
2022/05/10 02:17:12;;;;;;;13.77;6.53;;;13.00;99.90;;;;;;5034491;28;20082;-66
2022/05/10 02:20:03;;;;;;;15.32;7.25;;;13.00;99.90;;;;;;5050876;28;20076;-68
2022/05/10 02:22:49;;;;;;;18.70;8.02;;;12.90;99.90;;;;;;5045480;28;20114;-65
2022/05/10 02:25:24;;;;;;;12.27;6.03;;;12.90;99.90;;;;;;5046699;28;20465;-67
2022/05/10 02:27:59;;;;;;;11.90;6.35;;;12.90;99.90;;;;;;5047055;28;20045;-67
2022/05/10 02:30:29;;;;;;;12.57;6.65;;;12.90;99.90;;;;;;5036528;28;20114;-67
2022/05/10 02:33:07;;;;;;;14.18;6.22;;;12.90;99.90;;;;;;5055065;28;20533;-67
2022/05/10 02:36:01;;;;;;;18.35;7.22;;;12.90;99.90;;;;;;5051919;28;20048;-67
2022/05/10 02:38:31;;;;;;;;;;;12.90;99.90;;;;;;5052015;28;20482;-67
2022/05/10 02:41:00;;;;;;;13.23;6.80;;;12.90;99.90;;;;;;5052757;28;19920;-67
2022/05/10 02:43:31;;;;;;;13.25;7.03;;;12.80;99.90;;;;;;5051999;28;20479;-67
2022/05/10 02:45:58;;;;;;;11.77;6.53;;;12.80;99.90;;;;;;5054865;28;20044;-67
2022/05/10 02:48:29;;;;;;;15.15;6.43;;;12.80;99.90;;;;;;5050489;28;20062;-66
2022/05/10 02:50:57;;;;;;;12.13;6.40;;;12.80;99.90;;;;;;5052429;28;20098;-68
2022/05/10 02:53:23;;;;;;;12.63;6.68;;;12.70;99.90;;;;;;5049324;28;20117;-66
2022/05/10 02:55:53;;;;;;;14.63;6.47;;;12.80;99.90;;;;;;5057600;28;20048;-68
2022/05/10 02:58:40;;;;;;;11.55;6.72;;;12.70;99.90;;;;;;5051451;28;20039;-67
2022/05/10 03:01:22;;;;;;;15.23;6.82;;;12.80;99.90;;;;;;5054141;28;20140;-68
2022/05/10 03:03:48;;;;;;;14.55;6.70;;;12.70;99.90;;;;;;5051741;28;20056;-68
2022/05/10 03:06:20;;;;;;;15.38;7.45;;;12.70;99.90;;;;;;5021972;28;20127;-68
2022/05/10 03:08:47;;;;;;;13.47;7.00;;;12.70;99.90;;;;;;5035852;28;20044;-67
2022/05/10 03:11:14;;;;;;;12.15;6.85;;;12.70;99.90;;;;;;5043794;28;20612;-68
2022/05/10 03:13:41;;;;;;;16.33;7.20;;;12.70;99.90;;;;;;5038975;28;20052;-67
2022/05/10 03:16:08;;;;;;;16.92;7.47;;;12.70;99.90;;;;;;5052275;28;20106;-66
2022/05/10 03:18:35;;;;;;;20.92;7.55;;;12.80;99.90;;;;;;5052563;28;20046;-65
2022/05/10 03:21:02;;;;;;;14.48;7.30;;;12.80;99.90;;;;;;5050138;28;20089;-68
2022/05/10 03:23:28;;;;;;;13.38;7.05;;;12.80;99.90;;;;;;5035266;28;20052;-64
2022/05/10 03:25:57;;;;;;;17.80;7.88;;;12.90;99.90;;;;;;5031304;28;20044;-68
2022/05/10 03:28:24;;;;;;;14.05;6.85;;;12.90;99.90;;;;;;5051464;28;20204;-68
2022/05/10 03:30:51;;;;;;;13.52;7.47;;;13.00;99.90;;;;;;5045680;28;20505;-68
2022/05/10 03:33:17;;;;;;;16.83;7.30;;;13.00;99.90;;;;;;5051713;28;20052;-68
2022/05/10 03:35:43;;;;;;;18.40;7.40;;;13.00;99.90;;;;;;5052207;28;20048;-66
2022/05/10 03:38:09;;;;;;;14.13;7.57;;;13.10;99.90;;;;;;5019735;28;20047;-68
2022/05/10 03:40:35;;;;;;;13.85;7.75;;;13.10;99.90;;;;;;5048200;28;20788;-68
2022/05/10 03:43:02;;;;;;;17.88;7.50;;;13.20;99.90;;;;;;5053987;28;20048;-67
2022/05/10 03:45:28;;;;;;;21.45;8.10;;;13.20;99.90;;;;;;5033436;28;20055;-67
2022/05/10 03:47:54;;;;;;;15.07;7.28;;;13.20;99.90;;;;;;5065923;28;20486;-68
2022/05/10 03:50:24;;;;;;;14.18;7.45;;;13.30;99.90;;;;;;5035273;28;21018;-65
2022/05/10 03:52:50;;;;;;;17.55;7.25;;;13.30;99.90;;;;;;5048296;28;20052;-67
2022/05/10 03:55:22;;;;;;;15.45;7.60;;;13.30;99.90;;;;;;5037528;28;20440;-68
2022/05/10 03:57:51;;;;;;;12.00;8.05;;;13.30;99.90;;;;;;5036586;28;20052;-65
2022/05/10 04:00:21;;;;;;;15.60;7.70;;;13.30;99.90;;;;;;5054653;28;21064;-67
2022/05/10 04:02:48;;;;;;;15.90;7.75;;;13.30;99.90;;;;;;5053693;28;20040;-67
2022/05/10 04:05:16;;;;;;;13.65;7.93;;;13.30;99.90;;;;;;5040935;28;20410;-68
2022/05/10 04:07:43;;;;;;;18.92;7.82;;;13.40;99.90;;;;;;5034519;28;20052;-68
2022/05/10 04:10:11;;;;;;;14.20;8.20;;;13.40;99.90;;;;;;5051855;28;20505;-64
2022/05/10 04:12:38;;;;;;;15.55;8.57;;;13.40;99.90;;;;;;5046894;28;20062;-68
2022/05/10 04:15:06;;;;;;;19.23;8.45;;;13.40;99.90;;;;;;5060065;28;20147;-69
2022/05/10 04:17:32;;;;;;;18.23;8.30;;;13.40;99.90;;;;;;5033972;28;20045;-67
2022/05/10 04:19:58;;;;;;;18.08;8.02;;;13.50;99.90;;;;;;5058369;28;20517;-67
2022/05/10 04:22:25;;;;;;;16.40;7.95;;;13.50;99.90;;;;;;5047374;28;20044;-65
2022/05/10 04:24:51;;;;;;;15.18;8.05;;;13.50;99.90;;;;;;5052947;28;20063;-68
2022/05/10 04:27:17;;;;;;;17.75;8.27;;;13.50;99.90;;;;;;5034240;28;20134;-68
2022/05/10 04:29:43;;;;;;;21.30;9.05;;;13.60;99.90;;;;;;5033856;28;20052;-67
2022/05/10 04:32:09;;;;;;;17.40;8.60;;;13.60;99.90;;;;;;5039868;28;20058;-68
2022/05/10 04:34:36;;;;;;;16.30;8.23;;;13.60;99.90;;;;;;5054174;28;20506;-66
2022/05/10 04:37:02;;;;;;;15.27;8.32;;;13.60;99.90;;;;;;5054072;28;20040;-68
2022/05/10 04:41:24;;;;;;;14.50;8.73;;;13.60;99.90;;;;;;5043646;28;20426;-67
2022/05/10 04:42:14;;;;;;;21.95;8.80;;;13.60;99.90;;;;;;5049658;28;20093;-67
2022/05/10 04:44:40;;;;;;;12.80;8.10;;;13.70;99.90;;;;;;5017191;28;20036;-67
2022/05/10 04:47:07;;;;;;;18.60;8.73;;;13.70;99.90;;;;;;5034206;28;20044;-67
2022/05/10 04:49:33;;;;;;;18.10;8.55;;;13.70;99.90;;;;;;5048305;28;20063;-68
2022/05/10 04:51:59;;;;;;;15.95;9.00;;;13.70;99.90;;;;;;5053675;28;20044;-68
2022/05/10 04:54:25;;;;;;;18.58;8.20;;;13.80;99.90;;;;;;5049206;28;20063;-69
2022/05/10 04:56:52;;;;;;;23.83;9.32;;;13.80;99.90;;;;;;5046392;28;20059;-68
2022/05/10 04:59:18;;;;;;;18.30;8.65;;;13.80;99.90;;;;;;5050175;28;20040;-65
2022/05/10 05:01:44;;;;;;;17.42;9.27;;;13.80;99.90;;;;;;5039169;28;20043;-67
2022/05/10 05:04:10;;;;;;;19.30;8.73;;;13.90;99.90;;;;;;5031379;28;20044;-68
2022/05/10 05:06:39;;;;;;;18.48;9.10;;;13.90;99.90;;;;;;5033152;28;20079;-69
2022/05/10 05:09:06;;;;;;;21.13;8.80;;;13.90;99.90;;;;;;5047714;28;20588;-66
2022/05/10 05:11:33;;;;;;;19.35;9.13;;;14.00;99.90;;;;;;5047354;28;20052;-66
2022/05/10 05:13:59;;;;;;;13.52;8.63;;;13.90;99.90;;;;;;5035396;28;20032;-66
2022/05/10 05:16:25;;;;;;;18.27;9.25;;;14.00;99.90;;;;;;5023354;28;20048;-68
2022/05/10 05:18:51;;;;;;;18.45;9.35;;;14.00;99.90;;;;;;5048035;28;20367;-66
2022/05/10 05:21:17;;;;;;;19.17;9.13;;;14.00;99.90;;;;;;5015913;28;20164;-68
2022/05/10 05:23:44;;;;;;;13.25;8.73;;;14.10;99.90;;;;;;5046514;28;20044;-68
2022/05/10 05:26:10;;;;;;;15.93;9.20;;;14.10;99.90;;;;;;5033535;28;20664;-67
2022/05/10 05:28:36;;;;;;;16.80;9.18;;;14.10;99.90;;;;;;5043935;28;20086;-66
2022/05/10 05:31:04;;;;;;;13.75;8.80;;;14.20;99.90;;;;;;5013184;28;20043;-66
2022/05/10 05:33:30;;;;;;;14.93;9.30;;;14.20;99.90;;;;;;5043768;28;20041;-67
2022/05/10 05:35:56;;;;;;;15.73;9.18;;;14.20;99.90;;;;;;5052696;28;20044;-68
2022/05/10 05:38:24;;;;;;;18.85;9.15;;;14.20;99.90;;;;;;5055646;28;20059;-66
2022/05/10 05:40:50;;;;;;;17.23;9.75;;;14.30;99.90;;;;;;5049054;28;20123;-66
2022/05/10 05:43:19;;;;;;;19.15;8.90;;;14.30;99.90;;;;;;5048256;28;20213;-69
2022/05/10 05:45:46;;;;;;;19.70;10.02;;;14.40;99.90;;;;;;5051673;28;20039;-68
2022/05/10 05:48:12;;;;;;;16.27;9.38;;;14.40;99.90;;;;;;5046475;28;20058;-67
2022/05/10 05:50:38;;;;;;;18.25;9.52;;;14.50;99.90;;;;;;5037132;28;20049;-65
2022/05/10 05:53:05;;;;;;;15.05;9.55;;;14.50;99.90;;;;;;5044083;28;20775;-69
2022/05/10 05:55:31;;;;;;;23.50;9.65;;;14.50;99.90;;;;;;5054836;28;20052;-68
2022/05/10 05:58:00;;;;;;;23.85;10.13;;;14.60;99.90;;;;;;5051662;28;20049;-69
2022/05/10 06:00:26;;;;;;;16.52;9.70;;;14.60;99.90;;;;;;5040503;28;20102;-68
2022/05/10 06:02:53;;;;;;;16.63;9.60;;;14.70;99.90;;;;;;5051340;28;20040;-69
2022/05/10 06:05:20;;;;;;;19.08;9.77;;;14.70;99.90;;;;;;5055958;28;20056;-68
2022/05/10 06:07:47;;;;;;;19.67;9.65;;;14.80;99.90;;;;;;5036059;28;20087;-69
2022/05/10 06:10:13;;;;;;;19.52;9.68;;;14.80;99.90;;;;;;5057163;28;20097;-68
2022/05/10 06:12:41;;;;;;;18.27;9.48;;;14.90;99.90;;;;;;5045207;28;20048;-58
2022/05/10 06:15:11;;;;;;;14.05;8.95;;;14.90;99.90;;;;;;5069206;28;20048;-58
2022/05/10 06:17:40;;;;;;;19.73;9.82;;;15.00;99.90;;;;;;5057754;28;20106;-58
2022/05/10 06:20:09;;;;;;;14.77;8.55;;;15.10;99.90;;;;;;5070563;28;20041;-61
2022/05/10 06:22:35;;;;;;;15.70;9.25;;;15.20;99.90;;;;;;5068945;28;20579;-62
2022/05/10 06:25:01;;;;;;;17.05;8.82;;;15.30;99.90;;;;;;5074849;28;20483;-62
2022/05/10 06:27:27;;;;;;;13.82;9.10;;;15.40;99.90;;;;;;5060080;28;20490;-62
2022/05/10 06:29:53;;;;;;;19.52;9.40;;;15.50;99.80;;;;;;5071970;28;20056;-62
2022/05/10 06:32:23;;;;;;;14.27;8.93;;;15.70;99.70;;;;;;5074090;28;20056;-58
2022/05/10 06:34:50;;;;;;;20.75;9.10;;;15.80;99.60;;;;;;5045238;28;20140;-57
2022/05/10 06:40:11;;;;;;;18.75;8.70;;;16.00;99.10;;;;;;5069693;28;20041;-58
2022/05/10 06:42:38;;;;;;;13.52;8.65;;;16.10;99.00;;;;;;5069017;28;20079;-58
2022/05/10 06:45:09;;;;;;;16.38;8.60;;;16.30;98.70;;;;;;5071323;28;20043;-56
2022/05/10 06:47:40;;;;;;;14.45;8.18;;;16.40;98.40;;;;;;5072441;28;20053;-57
2022/05/10 06:50:12;;;;;;;15.20;9.13;;;16.60;98.00;;;;;;5065244;28;20461;-57
2022/05/10 06:52:39;;;;;;;;;;;16.70;97.60;;;;;;5062973;28;20044;-57
2022/05/10 06:55:05;;;;;;;16.75;8.07;;;16.90;97.70;;;;;;5064914;28;19978;-56
2022/05/10 06:57:32;;;;;;;14.60;8.07;;;17.00;96.80;;;;;;5072686;28;20386;-58
2022/05/10 06:59:58;;;;;;;14.30;7.63;;;17.20;96.70;;;;;;5054963;28;20039;-58
2022/05/10 07:02:26;;;;;;;15.15;7.15;;;17.30;96.50;;;;;;5065473;28;20112;-58
2022/05/10 07:04:53;;;;;;;11.57;7.32;;;17.40;95.90;;;;;;5054878;28;20047;-58
2022/05/10 07:07:19;;;;;;;10.93;6.40;;;17.50;95.60;;;;;;5069373;28;20056;-58
2022/05/10 07:09:46;;;;;;;15.30;6.80;;;17.60;95.40;;;;;;5070553;28;20075;-58
2022/05/10 07:12:12;;;;;;;16.27;6.82;;;17.70;95.10;;;;;;5068521;28;20075;-58
2022/05/10 07:14:38;;;;;;;10.95;7.03;;;17.90;94.80;;;;;;5072833;28;20036;-57
2022/05/10 07:17:04;;;;;;;9.20;5.97;;;18.00;94.70;;;;;;5068846;28;20105;-58
2022/05/10 07:19:30;;;;;;;13.27;6.30;;;18.10;94.30;;;;;;5067996;28;20155;-58
2022/05/10 07:21:57;;;;;;;12.27;6.35;;;18.20;93.60;;;;;;5070420;28;20047;-56
2022/05/10 07:24:23;;;;;;;12.35;5.93;;;18.30;93.30;;;;;;5065903;28;20040;-57
2022/05/10 07:26:50;;;;;;;9.60;6.10;;;18.40;92.90;;;;;;5073442;28;20071;-57
2022/05/10 07:29:16;;;;;;;13.18;5.97;;;18.50;92.70;;;;;;5060930;28;20099;-57
2022/05/10 07:31:43;;;;;;;13.35;6.30;;;18.60;92.20;;;;;;5049718;28;20148;-57
2022/05/10 07:34:10;;;;;;;10.35;5.88;;;18.70;92.10;;;;;;5031538;28;20048;-58
2022/05/10 07:36:36;;;;;;;12.77;5.97;;;18.90;91.90;;;;;;5050571;28;20045;-57
2022/05/10 07:39:10;;;;;;;12.00;6.25;;;19.00;90.90;;;;;;5032424;28;20103;-57
2022/05/10 07:41:37;;;;;;;16.63;6.32;;;19.10;90.50;;;;;;5044878;28;20491;-57
2022/05/10 07:44:05;;;;;;;13.65;6.10;;;19.30;89.70;;;;;;5048748;28;20114;-58
2022/05/10 07:46:31;;;;;;;10.63;5.78;;;19.40;88.60;;;;;;5048156;28;20057;-57
2022/05/10 07:48:57;;;;;;;12.48;5.93;;;19.30;88.60;;;;;;5051998;28;20090;-57
2022/05/10 07:51:23;;;;;;;12.13;6.10;;;19.50;88.80;;;;;;5045826;28;20074;-57
2022/05/10 07:53:50;;;;;;;12.73;5.70;;;19.60;88.50;;;;;;5053223;28;20056;-56
2022/05/10 07:56:16;;;;;;;12.23;6.03;;;19.60;87.70;;;;;;5051125;28;20138;-59
2022/05/10 07:58:42;;;;;;;12.40;5.40;;;19.60;87.50;;;;;;5049542;28;21148;-57
2022/05/10 08:01:08;;;;;;;11.32;4.72;;;19.60;86.80;;;;;;5044949;28;20040;-59
2022/05/10 08:03:35;;;;;;;13.57;5.15;;;19.70;85.80;;;;;;5031061;28;20044;-57
2022/05/10 08:06:01;;;;;;;11.45;5.78;;;19.70;84.80;;;;;;5032824;28;20045;-58
2022/05/10 08:08:30;;;;;;;14.18;5.18;;;19.80;84.30;;;;;;5050476;28;20051;-58
2022/05/10 08:10:57;;;;;;;10.23;5.10;;;19.80;83.70;;;;;;5049691;28;20135;-58
2022/05/10 08:13:27;;;;;;;11.43;5.30;;;19.90;82.40;;;;;;5049270;28;20071;-58
2022/05/10 08:15:57;;;;;;;9.30;5.22;;;20.00;83.10;;;;;;5050589;28;20079;-57
2022/05/10 08:18:24;;;;;;;14.18;5.38;;;20.00;83.00;;;;;;5045011;28;20099;-58
2022/05/10 08:20:52;;;;;;;12.35;4.72;;;20.00;82.20;;;;;;5033529;28;20056;-58
2022/05/10 08:23:23;;;;;;;10.63;5.30;;;20.10;81.30;;;;;;5047137;28;20044;-58
2022/05/10 08:25:54;;;;;;;14.30;4.63;;;20.10;80.10;;;;;;5045920;28;20133;-58
2022/05/10 08:28:22;;;;;;;7.75;4.03;;;20.20;79.50;;;;;;5052928;28;20298;-57
2022/05/10 08:30:48;;;;;;;13.07;5.03;;;20.20;80.10;;;;;;5066113;28;20052;-58
2022/05/10 08:33:23;;;;;;;13.13;4.78;;;20.30;80.40;;;;;;5069208;28;20041;-57
2022/05/10 08:35:51;;;;;;;12.38;4.65;;;20.40;79.50;;;;;;5067674;28;20044;-58
2022/05/10 08:38:17;;;;;;;9.35;4.20;;;20.40;78.20;;;;;;5057464;28;20048;-56
2022/05/10 08:40:52;;;;;;;11.10;5.07;;;20.60;78.30;;;;;;5050759;28;20048;-58
2022/05/10 08:43:30;;;;;;;8.75;4.03;;;20.70;77.90;;;;;;5067291;28;20044;-58
2022/05/10 08:45:57;;;;;;;10.07;3.72;;;20.80;78.70;;;;;;5066460;28;20052;-58
2022/05/10 08:48:27;;;;;;;10.00;4.15;;;20.90;77.50;;;;;;5067955;28;20505;-57
2022/05/10 08:50:53;;;;;;;12.85;4.22;;;20.90;76.80;;;;;;5049676;28;20088;-57
2022/05/10 08:53:19;;;;;;;11.13;3.90;;;21.00;76.00;;;;;;5064892;28;20075;-59
2022/05/10 08:55:51;;;;;;;13.80;3.90;;;21.00;75.20;;;;;;5072053;28;20508;-58
2022/05/10 08:58:38;;;;;;;7.32;3.90;;;21.00;74.80;;;;;;5067214;28;20049;-56
2022/05/10 09:01:10;;;;;;;6.63;4.00;;;21.00;75.40;;;;;;5066094;28;20044;-56
2022/05/10 09:03:57;;;;;;;10.82;3.83;;;21.10;74.80;;;;;;5071516;28;20041;-56
2022/05/10 09:06:35;;;;;;;11.55;3.83;;;21.10;74.00;;;;;;5071107;28;20562;-58
2022/05/10 09:09:16;;;;;;;7.57;3.40;;;21.20;73.50;;;;;;5067008;28;20040;-58
2022/05/10 09:11:50;;;;;;;12.27;3.60;;;21.20;73.00;;;;;;5071412;28;20086;-57
2022/05/10 09:14:28;;;;;;;7.78;3.60;;;21.30;73.80;;;;;;5071237;28;20044;-57
2022/05/10 09:16:56;;;;;;;13.65;3.45;;;21.30;73.50;;;;;;5076126;28;20054;-54
2022/05/10 09:19:31;;;;;;;7.53;3.05;;;21.30;73.00;;;;;;5075582;28;20116;-58
2022/05/10 09:22:01;;;;;;;6.20;3.40;;;21.40;72.50;;;;;;5074308;28;20040;-57
2022/05/10 09:24:47;;;;;;;10.75;3.20;;;21.40;72.10;;;;;;5065248;28;20044;-57
2022/05/10 09:27:14;;;;;;;7.63;3.45;;;21.40;71.30;;;;;;5075952;28;20486;-58
2022/05/10 09:29:45;;;;;;;9.52;3.50;;;21.50;70.90;;;;;;5076035;28;20471;-58
2022/05/10 09:35:19;;;;;;;13.07;3.60;;;21.70;71.00;;;;;;5073943;28;20513;-58
2022/05/10 09:37:50;;;;;;;11.60;3.70;;;21.80;70.40;;;;;;5075373;28;20052;-59
2022/05/10 09:40:24;;;;;;;6.97;3.42;;;21.90;70.80;;;;;;5061306;28;20045;-57
2022/05/10 09:42:53;;;;;;;11.73;3.58;;;21.90;70.00;;;;;;5070872;28;20048;-58
2022/05/10 09:45:23;;;;;;;12.23;4.35;;;22.00;69.30;;;;;;5059816;28;20097;-56
2022/05/10 09:48:13;;;;;;;17.45;4.45;;;22.10;69.70;;;;;;5073666;28;20079;-58
2022/05/10 09:50:51;;;;;;;9.57;4.65;;;22.30;70.60;;;;;;5073230;28;20040;-58
2022/05/10 09:53:33;;;;;;;12.38;4.20;;;22.60;69.10;;;;;;5074292;28;20131;-58
2022/05/10 09:56:05;;;;;;;10.82;4.22;;;22.80;68.30;;;;;;5075312;28;20466;-58
2022/05/10 09:59:28;;;;;;;14.05;4.70;;;22.90;67.90;;;;;;5053282;28;20079;-58
2022/05/10 10:02:00;;;;;;;13.73;4.47;;;22.80;67.10;;;;;;5070753;28;20049;-58
2022/05/10 10:04:32;;;;;;;13.75;5.00;;;22.60;66.50;;;;;;5069912;28;20447;-58
2022/05/10 10:07:13;;;;;;;18.88;5.43;;;22.50;67.30;;;;;;5067150;28;20944;-56
2022/05/10 10:09:53;;;;;;;20.55;5.10;;;22.40;67.70;;;;;;5068789;28;20407;-58
2022/05/10 10:12:31;;;;;;;11.00;4.70;;;22.40;67.20;;;;;;5055197;28;20060;-57
2022/05/10 10:14:58;;;;;;;10.25;4.85;;;22.40;67.90;;;;;;5069293;28;20826;-56
2022/05/10 10:17:28;;;;;;;11.00;4.80;;;22.40;68.50;;;;;;5073060;28;20241;-57
2022/05/10 10:20:03;;;;;;;14.40;5.72;;;22.50;68.40;;;;;;5069147;28;20068;-58
2022/05/10 10:22:46;;;;;;;17.10;5.85;;;22.50;68.00;;;;;;5065698;28;20044;-57
2022/05/10 10:25:18;;;;;;;16.13;5.80;;;22.60;67.80;;;;;;5053372;28;20560;-57
2022/05/10 10:28:04;;;;;;;14.77;5.60;;;22.80;67.80;;;;;;5069032;28;20560;-58
2022/05/10 10:30:38;;;;;;;19.85;5.53;;;22.90;68.50;;;;;;5040796;28;20095;-57
2022/05/10 10:33:11;;;;;;;14.40;5.75;;;22.90;67.50;;;;;;5053645;28;21046;-56
2022/05/10 10:35:51;;;;;;;13.40;6.43;;;22.90;67.00;;;;;;5050736;28;20105;-57
2022/05/10 10:38:21;;;;;;;12.82;5.43;;;22.90;66.60;;;;;;5052631;28;20058;-57
2022/05/10 10:40:57;;;;;;;12.65;6.22;;;23.00;67.00;;;;;;5047727;28;20052;-57
2022/05/10 10:43:31;;;;;;;9.63;5.68;;;23.00;67.60;;;;;;5049392;28;20041;-58
2022/05/10 10:46:06;;;;;;;19.25;6.25;;;23.00;67.40;;;;;;5044913;28;20045;-58
2022/05/10 10:48:52;;;;;;;10.13;5.75;;;23.10;67.70;;;;;;5049721;28;20440;-59
2022/05/10 10:51:18;;;;;;;11.10;5.22;;;23.00;67.80;;;;;;5050900;28;20059;-57
2022/05/10 10:53:46;;;;;;;16.05;6.03;;;23.00;68.50;;;;;;5047240;28;20947;-58
2022/05/10 10:56:34;;;;;;;9.15;5.68;;;23.00;68.00;;;;;;5048236;28;20048;-57
2022/05/10 10:59:27;;;;;;;9.70;5.30;;;23.10;68.30;;;;;;5047456;28;20049;-57
2022/05/10 11:02:31;;;;;;;12.05;4.97;;;23.00;67.90;;;;;;5047524;28;20041;-58
2022/05/10 11:05:18;;;;;;;16.73;4.85;;;22.80;67.20;;;;;;5045477;28;20111;-58
2022/05/10 11:08:17;;;;;;;13.52;4.47;;;22.70;67.10;;;;;;5053268;28;20419;-57
2022/05/10 11:10:57;;;;;;;7.75;4.40;;;22.60;67.50;;;;;;5052760;28;20060;-58
2022/05/10 11:13:51;;;;;;;12.60;3.90;;;22.50;67.90;;;;;;5052708;28;20103;-58
2022/05/10 11:16:29;;;;;;;6.05;3.20;;;22.50;66.70;;;;;;5050775;28;20406;-58
2022/05/10 11:19:13;;;;;;;7.93;3.38;;;22.40;66.20;;;;;;5046939;28;20131;-58
2022/05/10 11:21:46;;;;;;;13.32;3.10;;;22.40;65.90;;;;;;5051851;28;20606;-58
2022/05/10 11:24:24;;;;;;;10.65;3.38;;;22.40;66.20;;;;;;5046071;28;20051;-57
2022/05/10 11:27:16;;;;;;;9.05;3.72;;;22.50;66.10;;;;;;5050381;28;20068;-59
2022/05/10 11:30:15;;;;;;;9.90;3.77;;;22.50;66.20;;;;;;5056283;28;20122;-56
2022/05/10 11:32:45;;;;;;;10.65;3.50;;;22.50;66.90;;;;;;5070241;28;20047;-58
2022/05/10 11:35:23;;;;;;;11.95;4.13;;;22.60;67.20;;;;;;5069528;28;20075;-57
2022/05/10 11:37:58;;;;;;;11.25;4.43;;;22.70;66.50;;;;;;5049626;28;20056;-57
2022/05/10 11:41:05;;;;;;;25.33;5.65;;;22.70;65.80;;;;;;5069704;28;20068;-59
2022/05/10 11:43:58;;;;;;;9.45;4.88;;;22.60;65.40;;;;;;5071234;28;20052;-57
2022/05/10 11:46:47;;;;;;;15.63;5.05;;;22.60;65.50;;;;;;5042436;28;20040;-58
2022/05/10 11:49:44;;;;;;;12.50;5.70;;;22.50;65.90;;;;;;5072785;28;20048;-58
2022/05/10 11:52:30;;;;;;;11.00;5.78;;;22.50;65.60;;;;;;5068660;28;20048;-57
2022/05/10 11:55:16;;;;;;;13.38;5.90;;;22.50;66.60;;;;;;5060539;28;21010;-58
2022/05/10 11:57:43;;;;;;;12.23;5.95;;;22.70;68.40;;;;;;5070406;28;20048;-58
2022/05/10 12:00:31;;;;;;;15.35;6.32;;;22.90;67.00;;;;;;5044786;28;20040;-59
2022/05/10 12:03:03;;;;;;;13.15;6.57;;;23.10;67.50;;;;;;5049832;28;20259;-58
2022/05/10 12:05:36;;;;;;;13.43;6.70;;;23.30;67.10;;;;;;5063661;28;20111;-57
2022/05/10 12:08:24;;;;;;;13.68;5.95;;;23.50;66.50;;;;;;5065679;28;20117;-56
2022/05/10 12:10:50;;;;;;;21.25;7.00;;;23.60;67.40;;;;;;5067147;28;20119;-58
2022/05/10 12:21:19;;;;;;;18.60;7.22;;;23.70;67.20;;;;;;5068008;28;20134;-58
2022/05/10 12:22:07;;;;;;;14.35;6.63;;;23.80;66.30;;;;;;5038358;28;20091;-57
2022/05/10 12:24:44;;;;;;;21.30;6.40;;;23.90;66.20;;;;;;5068394;28;20044;-56
2022/05/10 12:27:12;;;;;;;14.45;4.95;;;23.90;66.30;;;;;;5035395;28;20048;-58
2022/05/10 12:29:39;;;;;;;12.57;5.32;;;23.90;65.60;;;;;;5068348;28;20056;-55
2022/05/10 12:32:23;;;;;;;10.90;5.07;;;23.80;65.00;;;;;;5072276;28;20044;-56
2022/05/10 12:34:58;;;;;;;9.68;5.03;;;23.70;64.90;;;;;;5067867;28;20129;-57
2022/05/10 12:37:26;;;;;;;13.38;4.85;;;23.70;65.30;;;;;;5067755;28;20132;-57
2022/05/10 12:39:56;;;;;;;19.33;5.03;;;23.60;65.70;;;;;;5055036;28;20054;-57
2022/05/10 12:42:40;;;;;;;9.32;4.13;;;23.50;65.30;;;;;;5072638;28;20036;-56
2022/05/10 12:45:41;;;;;;;12.65;4.55;;;23.40;65.00;;;;;;5065103;28;20036;-57
2022/05/10 12:48:10;;;;;;;9.70;4.35;;;23.30;65.10;;;;;;5066344;28;20055;-56
2022/05/10 12:50:55;;;;;;;6.57;3.50;;;23.10;64.90;;;;;;5066329;28;20524;-57
2022/05/10 12:53:24;;;;;;;10.60;3.08;;;23.00;64.30;;;;;;5065436;28;20060;-58
2022/05/10 12:55:52;;;;;;;9.00;2.75;;;22.90;63.50;;;;;;5069373;28;20508;-55
2022/05/10 12:58:24;;;;;;;13.50;3.13;;;22.80;62.00;;;;;;5067258;28;20051;-57
2022/05/10 13:00:57;;;;;;;10.05;2.85;;;22.80;62.60;;;;;;5066899;28;20071;-56
2022/05/10 13:03:45;;;;;;;13.23;2.70;;;22.80;61.40;;;;;;5072475;28;20040;-56
2022/05/10 13:06:49;;;;;;;9.52;2.20;;;22.80;61.30;;;;;;5051198;28;20105;-55
2022/05/10 13:09:49;;;;;;;13.25;2.60;;;22.80;60.50;;;;;;5067521;28;20056;-56
2022/05/10 13:12:28;;;;;;;9.95;2.38;;;22.80;58.30;;;;;;5069018;28;20106;-57
2022/05/10 13:14:59;;;;;;;7.05;2.85;;;22.70;58.50;;;;;;5068285;28;20063;-56
2022/05/10 13:17:34;;;;;;;5.80;2.28;;;22.60;58.90;;;;;;5062210;28;20502;-55
2022/05/10 13:20:08;;;;;;;9.05;2.10;;;22.50;58.90;;;;;;5067586;28;20048;-56
2022/05/10 13:22:35;;;;;;;4.45;2.13;;;22.40;59.80;;;;;;5065741;28;20041;-57